Time;durP1;ratioP1;P1;durP2;ratioP2;P2;SDS_P1;SDS_P2;PMS_P1;PMS_P2;Temp;Humidity;BMP_temperature;BMP_pressure;BME280_temperature;BME280_humidity;BME280_pressure;Samples;Min_cycle;Max_cycle;Signal;HPM_P1;HPM_P2
2024/02/21 00:02:05;;;;;;;29.63;9.32;;;8.70;99.90;;;;;;4908767;28;20082;-81
2024/02/21 00:04:31;;;;;;;20.45;8.20;;;8.70;99.90;;;;;;4898324;29;20086;-83
2024/02/21 00:06:57;;;;;;;16.25;6.38;;;8.70;99.90;;;;;;4894086;29;20038;-81
2024/02/21 00:09:22;;;;;;;11.90;6.10;;;8.70;99.90;;;;;;4920082;28;20094;-82
2024/02/21 00:11:48;;;;;;;25.08;8.73;;;8.70;99.90;;;;;;4928029;29;20031;-82
2024/02/21 00:14:13;;;;;;;21.92;9.10;;;8.70;99.90;;;;;;4945135;28;20039;-82
2024/02/21 00:16:39;;;;;;;21.60;7.18;;;8.70;99.90;;;;;;4906678;28;20047;-82
2024/02/21 00:19:05;;;;;;;20.08;8.40;;;8.60;99.90;;;;;;4919571;28;20046;-82
2024/02/21 00:21:30;;;;;;;20.73;7.57;;;8.70;99.90;;;;;;4907468;28;20023;-85
2024/02/21 00:23:56;;;;;;;22.27;9.25;;;8.70;99.90;;;;;;4915716;29;20035;-85
2024/02/21 00:26:28;;;;;;;20.42;8.80;;;8.70;99.90;;;;;;4911583;28;20102;-86
2024/02/21 00:28:54;;;;;;;22.77;7.90;;;8.70;99.90;;;;;;4921195;29;20032;-85
2024/02/21 00:31:20;;;;;;;27.15;10.70;;;8.80;99.90;;;;;;4947511;28;20481;-85
2024/02/21 00:33:45;;;;;;;26.83;9.60;;;8.70;99.90;;;;;;4929071;28;20039;-85
2024/02/21 00:36:11;;;;;;;21.25;8.50;;;8.70;99.90;;;;;;4943859;28;20103;-85
2024/02/21 00:38:51;;;;;;;12.38;5.22;;;8.70;99.90;;;;;;4919640;29;20038;-85
2024/02/21 00:41:17;;;;;;;20.70;8.00;;;8.70;99.90;;;;;;4927365;29;20024;-85
2024/02/21 00:43:42;;;;;;;30.65;10.18;;;8.70;99.90;;;;;;4928735;28;20040;-85
2024/02/21 00:46:08;;;;;;;30.77;11.82;;;8.70;99.90;;;;;;4913540;28;20028;-84
2024/02/21 00:48:34;;;;;;;19.33;7.53;;;8.60;99.90;;;;;;4927306;28;20116;-84
2024/02/21 00:51:02;;;;;;;15.18;6.75;;;8.70;99.90;;;;;;4956042;28;20036;-84
2024/02/21 00:53:28;;;;;;;28.58;7.82;;;8.70;99.90;;;;;;4962568;28;20229;-84
2024/02/21 00:55:54;;;;;;;25.77;11.23;;;8.70;99.90;;;;;;4947834;29;20148;-84
2024/02/21 00:58:19;;;;;;;21.00;8.02;;;8.70;99.90;;;;;;4933009;29;20043;-85
2024/02/21 01:00:45;;;;;;;12.38;5.10;;;8.70;99.90;;;;;;4932345;28;20055;-85
2024/02/21 01:03:11;;;;;;;31.55;10.20;;;8.70;99.90;;;;;;4932332;28;20043;-83
2024/02/21 01:05:36;;;;;;;26.50;9.45;;;8.70;99.90;;;;;;4943886;29;20825;-82
2024/02/21 01:08:02;;;;;;;17.90;6.15;;;8.70;99.90;;;;;;4946853;28;20031;-82
2024/02/21 01:10:28;;;;;;;19.63;5.30;;;8.70;99.90;;;;;;4946010;28;20117;-82
2024/02/21 01:12:53;;;;;;;9.07;5.43;;;8.70;99.90;;;;;;4932999;29;20038;-82
2024/02/21 01:15:24;;;;;;;27.48;8.57;;;8.70;99.90;;;;;;4914937;28;20048;-82
2024/02/21 01:17:54;;;;;;;29.80;10.80;;;8.70;99.90;;;;;;4915745;29;20050;-82
2024/02/21 01:20:20;;;;;;;27.42;10.18;;;8.70;99.90;;;;;;4931992;28;20442;-82
2024/02/21 01:22:47;;;;;;;20.83;8.68;;;8.70;99.90;;;;;;4931062;29;20071;-82
2024/02/21 01:25:12;;;;;;;10.18;4.85;;;8.70;99.90;;;;;;4930542;28;20552;-83
2024/02/21 01:27:38;;;;;;;19.75;5.57;;;8.70;99.90;;;;;;4930750;29;20094;-82
2024/02/21 01:30:05;;;;;;;29.77;9.45;;;8.70;99.90;;;;;;4897195;28;20035;-82
2024/02/21 01:32:31;;;;;;;5.40;2.83;;;8.70;99.90;;;;;;4906753;29;20046;-82
2024/02/21 01:35:05;;;;;;;21.08;7.18;;;8.70;99.90;;;;;;4899210;29;20035;-83
2024/02/21 01:37:31;;;;;;;17.77;7.78;;;8.70;99.90;;;;;;4906848;28;20038;-82
2024/02/21 01:40:05;;;;;;;23.92;9.10;;;8.70;99.90;;;;;;4925073;29;20420;-83
2024/02/21 01:42:30;;;;;;;14.50;4.35;;;8.70;99.90;;;;;;4917455;29;20374;-82
2024/02/21 01:44:56;;;;;;;25.25;7.57;;;8.60;99.90;;;;;;4940105;28;20028;-82
2024/02/21 01:47:22;;;;;;;14.90;6.18;;;8.60;99.90;;;;;;4908734;28;20046;-83
2024/02/21 01:49:47;;;;;;;24.95;9.82;;;8.50;99.90;;;;;;4943800;28;20043;-82
2024/02/21 01:52:18;;;;;;;13.85;6.60;;;8.70;99.90;;;;;;4929026;29;20097;-82
2024/02/21 01:54:44;;;;;;;19.55;9.93;;;8.50;99.90;;;;;;4929238;28;20055;-82
2024/02/21 01:57:10;;;;;;;24.52;9.10;;;8.60;99.90;;;;;;4944469;28;20031;-82
2024/02/21 01:59:35;;;;;;;26.67;9.57;;;8.60;99.90;;;;;;4943298;28;20564;-82
2024/02/21 02:02:03;;;;;;;16.80;7.07;;;8.60;99.90;;;;;;4958107;28;20058;-83
2024/02/21 02:04:29;;;;;;;17.67;6.43;;;8.60;99.90;;;;;;4945540;28;20039;-82
2024/02/21 02:07:01;;;;;;;24.88;9.32;;;8.60;99.90;;;;;;4943230;28;20047;-82
2024/02/21 02:09:27;;;;;;;25.92;8.40;;;8.60;99.90;;;;;;4932362;28;20497;-82
2024/02/21 02:11:53;;;;;;;27.10;9.80;;;8.60;99.90;;;;;;4912703;28;20043;-82
2024/02/21 02:14:18;;;;;;;24.85;9.68;;;8.60;99.90;;;;;;4945520;28;20070;-82
2024/02/21 02:16:47;;;;;;;22.88;9.60;;;8.60;99.90;;;;;;4914751;28;20571;-84
2024/02/21 02:19:13;;;;;;;24.45;9.15;;;8.60;99.90;;;;;;4930309;29;20031;-83
2024/02/21 02:21:40;;;;;;;20.92;5.97;;;8.60;99.90;;;;;;4929812;28;20042;-83
2024/02/21 02:24:06;;;;;;;19.63;5.65;;;8.60;99.90;;;;;;4945339;28;20036;-83
2024/02/21 02:26:31;;;;;;;19.77;6.93;;;8.50;99.90;;;;;;4942720;28;20038;-83
2024/02/21 02:28:57;;;;;;;20.88;9.77;;;8.60;99.90;;;;;;4930341;29;20477;-83
2024/02/21 02:31:22;;;;;;;26.08;9.55;;;8.50;99.90;;;;;;4914898;28;20412;-82
2024/02/21 02:33:48;;;;;;;38.10;13.55;;;8.50;99.90;;;;;;4923552;28;20118;-83
2024/02/21 02:36:14;;;;;;;14.65;6.32;;;8.50;99.90;;;;;;4928885;28;20051;-83
2024/02/21 02:38:39;;;;;;;29.27;9.77;;;8.50;99.90;;;;;;4930304;28;20046;-83
2024/02/21 02:41:05;;;;;;;22.95;10.30;;;8.50;99.90;;;;;;4959732;28;20031;-83
2024/02/21 02:43:31;;;;;;;21.85;7.97;;;8.50;99.90;;;;;;4929476;29;20062;-83
2024/02/21 02:45:57;;;;;;;27.88;8.55;;;8.50;99.90;;;;;;4911942;29;20034;-83
2024/02/21 02:48:22;;;;;;;19.13;8.32;;;8.50;99.90;;;;;;4927631;28;20044;-83
2024/02/21 02:50:49;;;;;;;19.48;8.95;;;8.30;99.90;;;;;;4914138;28;20039;-83
2024/02/21 02:53:15;;;;;;;21.10;8.57;;;8.50;99.90;;;;;;4928495;28;20115;-83
2024/02/21 02:55:40;;;;;;;20.95;9.43;;;8.40;99.90;;;;;;4926253;28;20119;-83
2024/02/21 02:58:06;;;;;;;20.88;8.52;;;8.40;99.90;;;;;;4927992;29;20035;-83
2024/02/21 03:00:35;;;;;;;26.80;7.75;;;8.40;99.90;;;;;;4913919;28;20152;-83
2024/02/21 03:03:03;;;;;;;16.92;6.50;;;8.40;99.90;;;;;;4926779;29;20047;-83
2024/02/21 03:05:29;;;;;;;20.48;7.75;;;8.30;99.90;;;;;;4930622;28;20530;-83
2024/02/21 03:07:55;;;;;;;28.00;9.48;;;8.30;99.90;;;;;;4941327;28;20051;-83
2024/02/21 03:10:20;;;;;;;21.40;9.30;;;8.30;99.90;;;;;;4913372;28;20028;-83
2024/02/21 03:12:46;;;;;;;22.75;8.48;;;8.20;99.90;;;;;;4944228;28;20034;-84
2024/02/21 03:15:12;;;;;;;20.80;7.60;;;8.30;99.90;;;;;;4941721;28;20032;-82
2024/02/21 03:17:38;;;;;;;22.58;8.15;;;8.30;99.90;;;;;;4947424;28;20051;-83
2024/02/21 03:20:05;;;;;;;17.80;8.30;;;8.30;99.90;;;;;;4913216;28;20554;-83
2024/02/21 03:22:31;;;;;;;19.85;8.02;;;8.20;99.90;;;;;;4945188;28;20038;-84
2024/02/21 03:24:56;;;;;;;18.77;6.68;;;8.30;99.90;;;;;;4929857;29;20066;-85
2024/02/21 03:27:22;;;;;;;22.65;8.80;;;8.30;99.90;;;;;;4930793;28;20819;-85
2024/02/21 03:29:47;;;;;;;17.05;7.95;;;8.30;99.90;;;;;;4933512;28;20035;-85
2024/02/21 03:32:13;;;;;;;22.30;9.82;;;8.30;99.90;;;;;;4938389;28;20038;-84
2024/02/21 03:34:41;;;;;;;24.17;9.95;;;8.30;99.90;;;;;;4943133;28;20105;-84
2024/02/21 03:37:13;;;;;;;10.88;3.97;;;8.20;99.90;;;;;;4955987;28;20050;-84
2024/02/21 03:39:39;;;;;;;14.27;7.22;;;8.30;99.90;;;;;;4905901;28;21164;-84
2024/02/21 03:42:05;;;;;;;15.60;4.72;;;8.30;99.90;;;;;;4928438;28;20114;-85
2024/02/21 03:44:34;;;;;;;16.90;7.57;;;8.30;99.90;;;;;;4931850;28;20031;-84
2024/02/21 03:47:00;;;;;;;17.27;6.50;;;8.30;99.90;;;;;;4923448;29;20035;-85
2024/02/21 03:49:26;;;;;;;19.42;9.05;;;8.30;99.90;;;;;;4950578;28;20541;-85
2024/02/21 03:51:51;;;;;;;24.20;9.00;;;8.30;99.90;;;;;;4929216;28;20039;-85
2024/02/21 03:54:17;;;;;;;16.95;7.00;;;8.30;99.90;;;;;;4912152;28;20028;-85
2024/02/21 03:56:48;;;;;;;16.02;7.47;;;8.30;99.90;;;;;;4919871;28;20094;-85
2024/02/21 03:59:14;;;;;;;15.48;5.88;;;8.30;99.90;;;;;;4937326;28;20527;-85
2024/02/21 04:01:40;;;;;;;14.63;6.55;;;8.30;99.90;;;;;;4917369;28;20036;-84
2024/02/21 04:04:05;;;;;;;13.35;5.00;;;8.30;99.90;;;;;;4910184;28;20049;-84
2024/02/21 04:06:31;;;;;;;10.07;4.00;;;8.30;99.90;;;;;;4942445;28;20028;-84
2024/02/21 04:08:57;;;;;;;11.40;5.25;;;8.30;99.90;;;;;;4914231;28;20070;-84
2024/02/21 04:11:27;;;;;;;19.23;8.25;;;8.30;99.90;;;;;;4941855;28;20055;-84
2024/02/21 04:13:53;;;;;;;16.65;5.75;;;8.30;99.90;;;;;;4931138;28;20068;-84
2024/02/21 04:16:19;;;;;;;19.95;8.07;;;8.30;99.90;;;;;;4957042;28;20452;-85
2024/02/21 04:18:44;;;;;;;15.85;6.97;;;8.30;99.90;;;;;;4928042;28;20047;-84
2024/02/21 04:21:10;;;;;;;27.50;7.00;;;8.30;99.90;;;;;;4927584;28;20038;-84
2024/02/21 04:23:36;;;;;;;21.83;8.95;;;8.30;99.90;;;;;;4926337;28;20048;-83
2024/02/21 04:26:01;;;;;;;22.98;8.90;;;8.40;99.90;;;;;;4928257;29;20802;-83
2024/02/21 04:28:27;;;;;;;19.38;7.05;;;8.40;99.90;;;;;;4962698;28;20050;-84
2024/02/21 04:30:52;;;;;;;19.00;7.88;;;8.40;99.90;;;;;;4942911;28;20046;-84
2024/02/21 04:33:18;;;;;;;12.73;3.17;;;8.40;99.90;;;;;;4945943;28;20032;-83
2024/02/21 04:35:43;;;;;;;14.88;5.65;;;8.30;99.90;;;;;;4945710;29;20453;-82
2024/02/21 04:38:10;;;;;;;17.67;7.38;;;8.40;99.90;;;;;;4932992;28;20051;-83
2024/02/21 04:40:35;;;;;;;10.85;3.85;;;8.30;99.90;;;;;;4930826;29;20052;-83
2024/02/21 04:43:01;;;;;;;20.55;7.10;;;8.40;99.90;;;;;;4931981;29;20126;-82
2024/02/21 04:45:26;;;;;;;21.27;8.95;;;8.40;99.90;;;;;;4958148;28;20489;-82
2024/02/21 04:47:52;;;;;;;18.10;8.32;;;8.40;99.90;;;;;;4943769;28;20043;-82
2024/02/21 04:50:17;;;;;;;15.35;5.10;;;8.40;99.90;;;;;;4915080;28;20043;-83
2024/02/21 04:52:43;;;;;;;16.27;6.47;;;8.40;99.90;;;;;;4917173;28;20122;-83
2024/02/21 04:55:09;;;;;;;16.38;6.10;;;8.40;99.90;;;;;;4931306;28;20036;-83
2024/02/21 04:57:34;;;;;;;18.63;6.85;;;8.40;99.90;;;;;;4945900;28;20405;-82
2024/02/21 05:00:00;;;;;;;10.18;5.50;;;8.50;99.90;;;;;;4916327;28;20038;-83
2024/02/21 05:02:26;;;;;;;11.27;5.03;;;8.50;99.90;;;;;;4946679;28;20054;-81
2024/02/21 05:04:52;;;;;;;12.65;6.38;;;8.40;99.90;;;;;;4915167;28;20055;-82
2024/02/21 05:07:19;;;;;;;12.43;6.05;;;8.50;99.90;;;;;;4932326;28;20071;-82
2024/02/21 05:09:45;;;;;;;15.45;6.32;;;8.50;99.90;;;;;;4915227;28;20102;-81
2024/02/21 05:12:11;;;;;;;23.48;5.90;;;8.60;99.90;;;;;;4946569;28;20102;-83
2024/02/21 05:14:37;;;;;;;17.45;5.18;;;8.50;99.90;;;;;;4935721;28;20508;-83
2024/02/21 05:17:03;;;;;;;10.48;4.55;;;8.50;99.90;;;;;;4919602;29;20606;-83
2024/02/21 05:19:29;;;;;;;15.13;5.93;;;8.50;99.90;;;;;;4960578;28;20047;-82
2024/02/21 05:21:54;;;;;;;10.07;4.35;;;8.50;99.90;;;;;;4914194;29;20032;-82
2024/02/21 05:24:20;;;;;;;8.35;2.15;;;8.60;99.90;;;;;;4916085;28;20154;-82
2024/02/21 05:26:48;;;;;;;14.02;5.50;;;8.50;99.90;;;;;;4946430;28;20035;-82
2024/02/21 05:29:14;;;;;;;15.90;6.65;;;8.50;99.90;;;;;;4915181;28;20035;-82
2024/02/21 05:31:52;;;;;;;18.20;5.75;;;8.50;99.90;;;;;;4931142;28;20412;-82
2024/02/21 05:34:18;;;;;;;15.40;6.75;;;8.50;99.90;;;;;;4946547;28;20031;-82
2024/02/21 05:36:44;;;;;;;13.30;3.95;;;8.50;99.90;;;;;;4929740;28;20082;-82
2024/02/21 05:39:09;;;;;;;7.57;3.55;;;8.50;99.90;;;;;;4931243;28;20035;-82
2024/02/21 05:41:35;;;;;;;11.50;5.53;;;8.50;99.90;;;;;;4915447;29;20039;-82
2024/02/21 05:44:01;;;;;;;7.78;4.35;;;8.60;99.90;;;;;;4933302;28;20049;-85
2024/02/21 05:46:26;;;;;;;11.93;5.60;;;8.40;99.90;;;;;;4917773;28;20035;-85
2024/02/21 05:48:52;;;;;;;12.43;5.95;;;8.50;99.90;;;;;;4932297;28;20039;-86
2024/02/21 05:51:17;;;;;;;15.55;5.45;;;8.50;99.90;;;;;;4931345;29;20039;-85
2024/02/21 05:53:43;;;;;;;9.20;5.25;;;8.50;99.90;;;;;;4947069;28;20040;-85
2024/02/21 05:56:12;;;;;;;9.30;4.07;;;8.50;99.90;;;;;;4933332;29;20035;-86
2024/02/21 05:58:38;;;;;;;14.25;5.63;;;8.50;99.90;;;;;;4933692;28;20612;-85
2024/02/21 06:01:04;;;;;;;12.07;3.70;;;8.60;99.90;;;;;;4931952;29;20118;-85
2024/02/21 06:03:30;;;;;;;15.23;5.53;;;8.40;99.90;;;;;;4930457;28;20433;-85
2024/02/21 06:05:55;;;;;;;16.48;5.88;;;8.50;99.90;;;;;;4931006;29;20303;-86
2024/02/21 06:08:21;;;;;;;13.65;3.70;;;8.50;99.90;;;;;;4929418;28;20122;-86
2024/02/21 06:10:54;;;;;;;12.43;4.80;;;8.50;99.90;;;;;;4912035;29;20641;-85
2024/02/21 06:13:25;;;;;;;12.07;4.93;;;8.50;99.90;;;;;;4945941;29;20657;-85
2024/02/21 06:15:52;;;;;;;17.23;5.90;;;8.50;99.90;;;;;;4945164;28;20071;-85
2024/02/21 06:18:18;;;;;;;14.30;4.82;;;8.50;99.90;;;;;;4931652;29;20031;-86
2024/02/21 06:20:44;;;;;;;11.60;4.40;;;8.60;99.90;;;;;;4915365;29;20082;-85
2024/02/21 06:23:11;;;;;;;12.75;5.30;;;8.60;99.90;;;;;;4960859;28;20031;-85
2024/02/21 06:25:36;;;;;;;13.27;5.80;;;8.50;99.90;;;;;;4929706;29;20448;-84
2024/02/21 06:28:02;;;;;;;15.52;5.20;;;8.50;99.90;;;;;;4930882;28;20103;-85
2024/02/21 06:30:28;;;;;;;13.07;5.10;;;8.50;99.90;;;;;;4928247;29;20446;-84
2024/02/21 06:32:55;;;;;;;12.77;3.97;;;8.50;99.90;;;;;;4930572;28;20027;-85
2024/02/21 06:35:21;;;;;;;18.77;5.88;;;8.50;99.90;;;;;;4944874;28;20108;-84
2024/02/21 06:37:50;;;;;;;9.18;2.03;;;8.50;99.90;;;;;;4928864;28;20505;-84
2024/02/21 06:40:16;;;;;;;12.30;4.57;;;8.50;99.90;;;;;;4929243;28;20126;-84
2024/02/21 06:42:42;;;;;;;12.98;5.18;;;8.50;99.90;;;;;;4912098;28;20054;-85
2024/02/21 06:45:08;;;;;;;10.80;3.15;;;8.50;99.90;;;;;;4948189;28;20040;-86
2024/02/21 06:47:33;;;;;;;4.85;2.38;;;8.50;99.90;;;;;;4931693;29;20044;-85
2024/02/21 06:50:05;;;;;;;12.45;4.70;;;8.50;99.90;;;;;;4916672;28;20028;-86
2024/02/21 06:52:31;;;;;;;3.97;2.40;;;8.50;99.90;;;;;;4944852;28;20035;-86
2024/02/21 06:54:57;;;;;;;10.90;3.47;;;8.60;99.90;;;;;;4926550;28;20039;-82
2024/02/21 06:57:23;;;;;;;14.82;5.03;;;8.50;99.90;;;;;;4926236;28;20433;-82
2024/02/21 06:59:48;;;;;;;8.32;2.60;;;8.50;99.90;;;;;;4927482;29;20027;-82
2024/02/21 07:02:14;;;;;;;9.73;4.95;;;8.50;99.90;;;;;;4944415;28;20051;-82
2024/02/21 07:04:39;;;;;;;10.02;4.57;;;8.60;99.90;;;;;;4949362;28;20035;-82
2024/02/21 07:07:05;;;;;;;9.10;4.65;;;8.60;99.90;;;;;;4926165;29;20512;-83
2024/02/21 07:09:31;;;;;;;9.98;4.15;;;8.50;99.90;;;;;;4930705;28;20292;-83
2024/02/21 07:11:58;;;;;;;14.50;4.95;;;8.60;99.90;;;;;;4930864;28;20392;-83
2024/02/21 07:14:39;;;;;;;14.45;5.60;;;8.60;99.90;;;;;;4927953;28;20534;-82
2024/02/21 07:17:05;;;;;;;14.35;4.97;;;8.60;99.90;;;;;;4929904;28;20039;-81
2024/02/21 07:19:30;;;;;;;11.07;4.65;;;8.60;99.90;;;;;;4944295;28;20392;-81
2024/02/21 07:21:56;;;;;;;11.73;4.70;;;8.70;99.90;;;;;;4914229;28;20183;-82
2024/02/21 07:24:22;;;;;;;15.13;4.95;;;8.60;99.90;;;;;;4927187;28;20537;-82
2024/02/21 07:26:53;;;;;;;13.45;4.80;;;8.60;99.90;;;;;;4912553;28;20158;-82
2024/02/21 07:29:19;;;;;;;10.57;4.10;;;8.60;99.90;;;;;;4922596;28;20027;-82
2024/02/21 07:31:45;;;;;;;7.75;3.13;;;8.60;99.90;;;;;;4955603;28;20038;-82
2024/02/21 07:34:10;;;;;;;13.50;4.50;;;8.60;99.90;;;;;;4913667;28;20035;-81
2024/02/21 07:36:38;;;;;;;9.85;4.07;;;8.70;99.90;;;;;;4929199;29;20126;-83
2024/02/21 07:39:04;;;;;;;13.52;4.88;;;8.70;99.90;;;;;;4913666;28;20030;-81
2024/02/21 07:41:30;;;;;;;12.95;4.80;;;8.70;99.90;;;;;;4912803;29;20389;-82
2024/02/21 07:43:56;;;;;;;7.53;4.07;;;8.70;99.90;;;;;;4916557;28;20188;-85
2024/02/21 07:46:21;;;;;;;9.00;4.00;;;8.70;99.90;;;;;;4932321;28;20036;-82
2024/02/21 07:48:47;;;;;;;8.70;3.90;;;8.80;99.90;;;;;;4944917;28;20039;-82
2024/02/21 07:51:13;;;;;;;9.73;4.60;;;8.80;99.90;;;;;;4926375;28;20107;-82
2024/02/21 07:53:48;;;;;;;18.13;6.13;;;8.70;99.90;;;;;;4933291;29;20070;-82
2024/02/21 07:56:29;;;;;;;8.32;3.13;;;8.80;99.90;;;;;;4929595;28;20554;-82
2024/02/21 07:58:55;;;;;;;3.30;2.40;;;8.80;99.90;;;;;;4941009;28;20042;-83
2024/02/21 08:01:22;;;;;;;9.80;3.70;;;8.80;99.90;;;;;;4913465;28;20032;-82
2024/02/21 08:03:47;;;;;;;15.35;4.32;;;8.80;99.90;;;;;;4921115;28;20049;-81
2024/02/21 08:06:13;;;;;;;11.57;3.75;;;8.90;99.90;;;;;;4936683;28;20043;-82
2024/02/21 08:08:39;;;;;;;5.13;2.17;;;8.90;99.90;;;;;;4919703;29;20075;-82
2024/02/21 08:11:05;;;;;;;4.28;2.20;;;8.90;99.90;;;;;;4934229;28;20114;-82
2024/02/21 08:13:31;;;;;;;10.88;3.00;;;9.00;99.90;;;;;;4933209;28;20123;-82
2024/02/21 08:15:57;;;;;;;9.63;3.08;;;9.00;99.90;;;;;;4948090;28;20412;-82
2024/02/21 08:18:23;;;;;;;4.28;2.10;;;9.10;99.90;;;;;;4950779;28;20027;-83
2024/02/21 08:20:49;;;;;;;9.82;3.90;;;9.00;99.90;;;;;;4950334;28;20039;-82
2024/02/21 08:23:18;;;;;;;7.20;2.95;;;9.20;99.90;;;;;;4937231;28;20035;-82
2024/02/21 08:25:44;;;;;;;4.53;1.80;;;9.10;99.90;;;;;;4951584;28;20046;-81
2024/02/21 08:28:09;;;;;;;14.00;3.15;;;9.10;99.90;;;;;;4935512;29;20047;-82
2024/02/21 08:30:35;;;;;;;8.13;2.33;;;9.20;99.90;;;;;;4947849;28;20409;-82
2024/02/21 08:33:00;;;;;;;7.85;2.58;;;9.20;99.90;;;;;;4935057;28;20101;-82
2024/02/21 08:35:27;;;;;;;7.47;3.10;;;9.20;99.90;;;;;;4933886;29;20031;-82
2024/02/21 08:37:52;;;;;;;9.60;3.95;;;9.20;99.90;;;;;;4935153;28;20043;-80
2024/02/21 08:40:20;;;;;;;8.40;2.42;;;9.20;99.90;;;;;;4933713;28;20034;-82
2024/02/21 08:42:46;;;;;;;11.68;4.40;;;9.20;99.90;;;;;;4929955;28;20032;-82
2024/02/21 08:45:14;;;;;;;11.50;3.78;;;9.20;99.90;;;;;;4920029;29;20058;-82
2024/02/21 08:47:41;;;;;;;7.13;2.17;;;9.20;99.90;;;;;;4926227;29;20515;-82
2024/02/21 08:50:10;;;;;;;4.35;1.77;;;9.30;99.90;;;;;;4950141;28;20118;-83
2024/02/21 08:52:36;;;;;;;10.38;4.60;;;9.40;99.90;;;;;;4949895;28;20039;-82
2024/02/21 08:55:02;;;;;;;8.02;3.53;;;9.40;99.90;;;;;;4937889;28;20424;-83
2024/02/21 08:57:28;;;;;;;5.15;2.10;;;9.40;99.90;;;;;;4895999;29;20262;-82
2024/02/21 08:59:53;;;;;;;12.73;3.85;;;9.40;99.90;;;;;;4933819;29;20019;-81
2024/02/21 09:02:19;;;;;;;5.90;2.22;;;9.40;99.90;;;;;;4946406;28;20036;-82
2024/02/21 09:04:44;;;;;;;8.32;2.85;;;9.40;99.90;;;;;;4916828;29;20050;-82
2024/02/21 09:07:10;;;;;;;8.32;2.83;;;9.30;99.90;;;;;;4914786;28;20035;-82
2024/02/21 09:09:38;;;;;;;3.38;2.30;;;9.30;99.90;;;;;;4933856;28;20515;-82
2024/02/21 09:12:05;;;;;;;10.48;3.72;;;9.30;99.90;;;;;;4947105;28;20188;-83
2024/02/21 09:14:34;;;;;;;11.30;3.92;;;9.30;99.90;;;;;;4959386;28;20037;-84
2024/02/21 09:17:00;;;;;;;9.98;3.05;;;9.30;99.90;;;;;;4947531;28;20039;-83
2024/02/21 09:19:25;;;;;;;12.43;4.65;;;9.20;99.90;;;;;;4931105;28;20027;-81
2024/02/21 09:21:51;;;;;;;10.85;4.18;;;9.30;99.90;;;;;;4945969;28;20114;-83
2024/02/21 09:24:17;;;;;;;8.68;2.72;;;9.20;99.90;;;;;;4955022;28;20039;-83
2024/02/21 09:26:43;;;;;;;18.27;4.00;;;9.20;99.90;;;;;;4915167;29;20110;-83
2024/02/21 09:29:08;;;;;;;10.00;4.30;;;9.20;99.90;;;;;;4915594;29;20118;-83
2024/02/21 09:31:34;;;;;;;13.48;2.75;;;9.20;99.90;;;;;;4931931;28;20506;-83
2024/02/21 09:34:02;;;;;;;5.90;2.08;;;9.20;99.90;;;;;;4948615;28;20429;-83
2024/02/21 09:36:28;;;;;;;10.55;4.13;;;9.20;99.90;;;;;;4928024;28;20556;-84
2024/02/21 09:38:54;;;;;;;13.40;4.05;;;9.20;99.90;;;;;;4931174;28;20027;-81
2024/02/21 09:41:25;;;;;;;7.50;2.50;;;9.20;99.90;;;;;;4927513;29;20653;-82
2024/02/21 09:43:53;;;;;;;3.83;2.40;;;9.20;99.90;;;;;;4912516;28;20111;-82
2024/02/21 09:46:19;;;;;;;12.00;3.83;;;9.20;99.90;;;;;;4931034;29;20027;-81
2024/02/21 09:49:04;;;;;;;10.50;3.42;;;9.20;99.90;;;;;;4913747;29;20043;-82
2024/02/21 09:51:32;;;;;;;8.95;3.85;;;9.20;99.90;;;;;;4943972;28;20334;-82
2024/02/21 09:53:57;;;;;;;18.50;5.22;;;9.20;99.90;;;;;;4945484;28;20054;-82
2024/02/21 09:56:24;;;;;;;11.70;4.47;;;9.20;99.90;;;;;;4956457;28;20031;-82
2024/02/21 09:58:50;;;;;;;10.68;3.13;;;9.30;99.90;;;;;;4932330;28;20028;-83
2024/02/21 10:01:16;;;;;;;8.18;3.15;;;9.30;99.90;;;;;;4960765;28;20046;-82
2024/02/21 10:03:46;;;;;;;14.02;4.78;;;9.30;99.90;;;;;;4946545;28;20058;-83
2024/02/21 10:06:12;;;;;;;12.77;4.57;;;9.30;99.90;;;;;;4931198;29;20082;-82
2024/02/21 10:08:37;;;;;;;11.90;4.95;;;9.40;99.90;;;;;;4946919;28;20043;-83
2024/02/21 10:11:03;;;;;;;13.13;5.30;;;9.50;99.90;;;;;;4916582;28;20062;-82
2024/02/21 10:13:29;;;;;;;13.15;6.40;;;9.60;99.90;;;;;;4912824;28;20061;-83
2024/02/21 10:16:07;;;;;;;10.75;3.92;;;9.60;99.90;;;;;;4945817;28;20043;-83
2024/02/21 10:18:33;;;;;;;14.10;5.65;;;9.70;99.90;;;;;;4942520;28;20077;-82
2024/02/21 10:21:06;;;;;;;14.50;5.45;;;9.60;99.90;;;;;;4929389;28;20067;-83
2024/02/21 10:23:48;;;;;;;13.10;4.55;;;9.60;99.90;;;;;;4945029;28;20577;-83
2024/02/21 10:26:14;;;;;;;11.00;5.25;;;9.70;99.90;;;;;;4959783;28;20119;-82
2024/02/21 10:28:42;;;;;;;4.75;2.40;;;9.80;99.90;;;;;;4931152;29;20058;-81
2024/02/21 10:31:11;;;;;;;11.82;4.70;;;9.90;99.90;;;;;;4930868;28;20039;-83
2024/02/21 10:33:37;;;;;;;10.90;4.95;;;10.00;99.90;;;;;;4944145;28;20485;-83
2024/02/21 10:36:10;;;;;;;7.93;2.97;;;10.00;99.90;;;;;;4927828;29;20039;-82
2024/02/21 10:38:37;;;;;;;3.90;2.50;;;10.00;99.90;;;;;;4945461;28;20615;-83
2024/02/21 10:41:04;;;;;;;5.90;3.60;;;9.90;99.90;;;;;;4935009;29;20110;-83
2024/02/21 10:43:30;;;;;;;9.02;3.03;;;10.00;99.90;;;;;;4930261;28;20488;-83
2024/02/21 10:45:56;;;;;;;7.63;4.18;;;10.00;99.90;;;;;;4930741;28;20509;-83
2024/02/21 10:48:25;;;;;;;9.40;4.25;;;10.00;99.90;;;;;;4946622;28;20047;-82
2024/02/21 10:51:23;;;;;;;8.45;4.22;;;10.00;99.90;;;;;;4928764;28;20504;-82
2024/02/21 10:53:51;;;;;;;8.70;2.72;;;10.00;99.90;;;;;;4932489;28;20114;-82
2024/02/21 10:56:30;;;;;;;7.47;3.95;;;10.00;99.90;;;;;;4943315;28;20438;-82
2024/02/21 10:59:00;;;;;;;7.95;3.97;;;10.10;99.90;;;;;;4927944;28;20032;-83
2024/02/21 11:01:29;;;;;;;7.15;4.13;;;10.30;99.90;;;;;;4912302;28;20097;-83
2024/02/21 11:03:56;;;;;;;8.35;3.78;;;10.30;99.90;;;;;;4930274;28;20058;-83
2024/02/21 11:06:21;;;;;;;10.25;4.70;;;10.40;99.90;;;;;;4926113;28;20038;-82
2024/02/21 11:08:50;;;;;;;7.68;3.95;;;10.40;99.90;;;;;;4929389;28;20039;-82
2024/02/21 11:11:18;;;;;;;7.50;3.75;;;10.50;99.90;;;;;;4914755;29;20032;-82
2024/02/21 11:13:45;;;;;;;7.45;4.13;;;10.60;99.90;;;;;;4914374;29;20507;-83
2024/02/21 11:16:12;;;;;;;4.80;2.53;;;10.70;99.90;;;;;;4946518;28;20035;-83
2024/02/21 11:18:40;;;;;;;7.05;3.28;;;10.70;99.90;;;;;;4929482;28;20042;-82
2024/02/21 11:21:06;;;;;;;9.82;3.72;;;10.70;99.90;;;;;;4928938;28;20031;-81
2024/02/21 11:23:32;;;;;;;9.13;3.63;;;10.60;99.90;;;;;;4927173;28;20381;-83
2024/02/21 11:26:10;;;;;;;7.82;3.53;;;10.70;99.90;;;;;;4931514;28;20489;-82
2024/02/21 11:28:39;;;;;;;11.25;3.67;;;10.90;99.90;;;;;;4913444;28;20529;-83
2024/02/21 11:31:11;;;;;;;10.00;4.28;;;10.90;99.90;;;;;;4929764;28;20709;-83
2024/02/21 11:33:42;;;;;;;6.30;3.85;;;11.00;99.90;;;;;;4944699;28;20063;-85
2024/02/21 11:36:08;;;;;;;7.50;3.92;;;11.10;99.90;;;;;;4916460;28;20042;-86
2024/02/21 11:38:34;;;;;;;7.68;3.40;;;11.20;99.90;;;;;;4917713;28;20040;-83
2024/02/21 11:40:59;;;;;;;14.07;3.42;;;11.20;99.90;;;;;;4945918;28;20085;-85
2024/02/21 11:43:25;;;;;;;13.02;4.70;;;11.20;99.90;;;;;;4915805;28;20110;-84
2024/02/21 11:46:01;;;;;;;3.75;2.72;;;11.40;99.90;;;;;;4914862;29;20124;-85
2024/02/21 11:48:27;;;;;;;9.18;4.10;;;11.50;99.90;;;;;;4929096;28;20127;-85
2024/02/21 11:50:56;;;;;;;8.15;4.07;;;11.50;99.90;;;;;;4930878;28;20032;-85
2024/02/21 11:53:24;;;;;;;7.68;3.78;;;11.50;99.90;;;;;;4927703;28;20067;-85
2024/02/21 11:55:50;;;;;;;10.55;3.00;;;11.40;99.90;;;;;;4946140;28;21105;-86
2024/02/21 11:58:16;;;;;;;10.65;3.53;;;11.40;99.90;;;;;;4961691;28;20035;-86
2024/02/21 12:00:41;;;;;;;6.25;3.20;;;11.50;99.90;;;;;;4930133;29;20064;-86
2024/02/21 12:03:07;;;;;;;7.15;3.55;;;11.40;99.90;;;;;;4929856;28;20058;-86
2024/02/21 12:05:56;;;;;;;6.47;3.10;;;11.40;99.90;;;;;;4908304;28;20027;-86
2024/02/21 12:08:22;;;;;;;7.97;3.33;;;11.50;99.90;;;;;;4961961;28;20066;-85
2024/02/21 12:10:51;;;;;;;3.83;1.73;;;11.70;99.90;;;;;;4940304;28;20063;-85
2024/02/21 12:13:16;;;;;;;9.07;3.40;;;11.70;99.90;;;;;;4931032;29;20032;-85
2024/02/21 12:15:48;;;;;;;5.50;2.47;;;11.70;99.90;;;;;;4905801;29;20043;-86
2024/02/21 12:18:15;;;;;;;8.70;2.92;;;11.80;99.90;;;;;;4947727;28;20043;-85
2024/02/21 12:20:42;;;;;;;7.57;2.85;;;11.70;99.90;;;;;;4927127;28;20520;-85
2024/02/21 12:23:10;;;;;;;7.88;2.85;;;11.70;99.90;;;;;;4946869;28;20066;-86
2024/02/21 12:25:36;;;;;;;4.57;2.65;;;11.80;99.90;;;;;;4930364;28;20507;-86
2024/02/21 12:28:02;;;;;;;11.38;3.65;;;11.80;99.90;;;;;;4930165;28;20051;-85
2024/02/21 12:30:27;;;;;;;9.93;3.22;;;12.00;99.90;;;;;;4947101;28;20424;-85
2024/02/21 12:32:53;;;;;;;4.40;1.98;;;12.00;99.90;;;;;;4930649;28;20028;-84
2024/02/21 12:35:19;;;;;;;8.05;3.00;;;11.90;99.90;;;;;;4943664;28;20039;-84
2024/02/21 12:37:44;;;;;;;10.07;2.97;;;11.80;99.90;;;;;;4925656;28;20043;-84
2024/02/21 12:40:10;;;;;;;12.82;3.20;;;11.90;99.90;;;;;;4927800;28;20066;-84
2024/02/21 12:42:36;;;;;;;3.22;1.98;;;12.20;99.90;;;;;;4931166;28;20392;-84
2024/02/21 12:45:05;;;;;;;6.25;2.58;;;12.30;99.90;;;;;;4943921;28;20039;-82
2024/02/21 12:47:30;;;;;;;4.93;2.20;;;11.90;99.90;;;;;;4925667;29;20071;-83